sensor_id;sensor_type;location;lat;lon;timestamp;temperature;humidity
56044;DHT22;41912;51.022;3.664;2022-08-04T00:00:29;23.80;90.50
56044;DHT22;41912;51.022;3.664;2022-08-04T00:05:59;23.70;90.60
56044;DHT22;41912;51.022;3.664;2022-08-04T00:11:07;23.60;90.80
56044;DHT22;41912;51.022;3.664;2022-08-04T00:13:38;23.60;90.80
56044;DHT22;41912;51.022;3.664;2022-08-04T00:16:08;23.60;90.90
56044;DHT22;41912;51.022;3.664;2022-08-04T00:18:54;23.60;91.00
56044;DHT22;41912;51.022;3.664;2022-08-04T00:21:24;23.50;91.00
56044;DHT22;41912;51.022;3.664;2022-08-04T00:23:51;23.50;91.00
56044;DHT22;41912;51.022;3.664;2022-08-04T00:26:18;23.50;91.10
56044;DHT22;41912;51.022;3.664;2022-08-04T00:28:44;23.40;91.20
56044;DHT22;41912;51.022;3.664;2022-08-04T00:31:14;23.40;91.30
56044;DHT22;41912;51.022;3.664;2022-08-04T00:33:43;23.40;91.40
56044;DHT22;41912;51.022;3.664;2022-08-04T00:36:11;23.40;91.30
56044;DHT22;41912;51.022;3.664;2022-08-04T00:38:40;23.40;91.40
56044;DHT22;41912;51.022;3.664;2022-08-04T01:00:10;23.10;91.90
56044;DHT22;41912;51.022;3.664;2022-08-04T01:05:34;23.00;92.10
56044;DHT22;41912;51.022;3.664;2022-08-04T01:15:59;22.90;92.20
56044;DHT22;41912;51.022;3.664;2022-08-04T01:29:30;22.70;92.60
56044;DHT22;41912;51.022;3.664;2022-08-04T01:32:04;22.70;92.80
56044;DHT22;41912;51.022;3.664;2022-08-04T01:34:40;22.60;92.90
56044;DHT22;41912;51.022;3.664;2022-08-04T01:37:41;22.60;93.00
56044;DHT22;41912;51.022;3.664;2022-08-04T01:40:08;22.50;93.10
56044;DHT22;41912;51.022;3.664;2022-08-04T01:42:38;22.50;93.20
56044;DHT22;41912;51.022;3.664;2022-08-04T01:45:08;22.50;93.20
56044;DHT22;41912;51.022;3.664;2022-08-04T01:47:36;22.50;93.30
56044;DHT22;41912;51.022;3.664;2022-08-04T01:50:08;22.50;93.30
56044;DHT22;41912;51.022;3.664;2022-08-04T01:52:35;22.40;93.30
56044;DHT22;41912;51.022;3.664;2022-08-04T01:55:09;22.40;93.20
56044;DHT22;41912;51.022;3.664;2022-08-04T02:00:13;22.40;93.30
56044;DHT22;41912;51.022;3.664;2022-08-04T02:02:39;22.40;93.30
56044;DHT22;41912;51.022;3.664;2022-08-04T02:05:09;22.40;93.40
56044;DHT22;41912;51.022;3.664;2022-08-04T02:10:09;22.30;93.40
56044;DHT22;41912;51.022;3.664;2022-08-04T02:15:44;22.30;93.40
56044;DHT22;41912;51.022;3.664;2022-08-04T02:20:45;22.20;93.70
56044;DHT22;41912;51.022;3.664;2022-08-04T02:23:35;22.10;93.90
56044;DHT22;41912;51.022;3.664;2022-08-04T02:26:04;22.20;93.90
56044;DHT22;41912;51.022;3.664;2022-08-04T02:33:36;22.20;93.90
56044;DHT22;41912;51.022;3.664;2022-08-04T02:36:04;22.10;93.80
56044;DHT22;41912;51.022;3.664;2022-08-04T02:41:15;22.10;94.10
56044;DHT22;41912;51.022;3.664;2022-08-04T02:43:42;22.00;94.00
56044;DHT22;41912;51.022;3.664;2022-08-04T02:46:11;22.00;94.00
56044;DHT22;41912;51.022;3.664;2022-08-04T02:48:39;22.00;94.00
56044;DHT22;41912;51.022;3.664;2022-08-04T02:51:10;22.00;93.90
56044;DHT22;41912;51.022;3.664;2022-08-04T02:53:37;22.00;93.90
56044;DHT22;41912;51.022;3.664;2022-08-04T02:56:06;22.00;93.90
56044;DHT22;41912;51.022;3.664;2022-08-04T02:58:34;21.90;94.00
56044;DHT22;41912;51.022;3.664;2022-08-04T03:01:00;21.90;94.10
56044;DHT22;41912;51.022;3.664;2022-08-04T03:06:14;21.80;94.10
56044;DHT22;41912;51.022;3.664;2022-08-04T03:12:09;21.70;94.20
56044;DHT22;41912;51.022;3.664;2022-08-04T03:24:11;21.60;94.60
56044;DHT22;41912;51.022;3.664;2022-08-04T03:26:41;21.60;94.50
56044;DHT22;41912;51.022;3.664;2022-08-04T03:29:25;21.60;94.50
56044;DHT22;41912;51.022;3.664;2022-08-04T03:35:02;21.50;94.70
56044;DHT22;41912;51.022;3.664;2022-08-04T03:55:10;21.30;94.70
56044;DHT22;41912;51.022;3.664;2022-08-04T03:57:57;21.30;94.80
56044;DHT22;41912;51.022;3.664;2022-08-04T04:00:43;21.20;94.80
56044;DHT22;41912;51.022;3.664;2022-08-04T04:03:21;21.20;94.90
56044;DHT22;41912;51.022;3.664;2022-08-04T04:19:51;21.00;95.20
56044;DHT22;41912;51.022;3.664;2022-08-04T04:25:27;20.90;95.50
56044;DHT22;41912;51.022;3.664;2022-08-04T04:28:11;20.90;95.50
56044;DHT22;41912;51.022;3.664;2022-08-04T04:36:18;20.90;95.80
56044;DHT22;41912;51.022;3.664;2022-08-04T04:39:07;20.90;95.80
56044;DHT22;41912;51.022;3.664;2022-08-04T04:50:11;20.90;96.10
56044;DHT22;41912;51.022;3.664;2022-08-04T04:53:02;20.90;96.20
56044;DHT22;41912;51.022;3.664;2022-08-04T04:55:39;21.00;96.20
56044;DHT22;41912;51.022;3.664;2022-08-04T04:58:10;20.90;96.30
56044;DHT22;41912;51.022;3.664;2022-08-04T05:03:48;21.00;96.50
56044;DHT22;41912;51.022;3.664;2022-08-04T05:09:21;20.90;97.40
56044;DHT22;41912;51.022;3.664;2022-08-04T05:14:47;20.90;98.40
56044;DHT22;41912;51.022;3.664;2022-08-04T05:17:19;20.90;98.60
56044;DHT22;41912;51.022;3.664;2022-08-04T05:26:11;21.10;98.80
56044;DHT22;41912;51.022;3.664;2022-08-04T05:28:44;21.10;98.90
56044;DHT22;41912;51.022;3.664;2022-08-04T05:31:12;21.10;99.00
56044;DHT22;41912;51.022;3.664;2022-08-04T05:33:47;21.10;99.20
56044;DHT22;41912;51.022;3.664;2022-08-04T05:36:19;21.10;99.40
56044;DHT22;41912;51.022;3.664;2022-08-04T05:38:50;21.10;99.50
56044;DHT22;41912;51.022;3.664;2022-08-04T05:41:16;21.10;99.70
56044;DHT22;41912;51.022;3.664;2022-08-04T05:43:43;21.10;99.80
56044;DHT22;41912;51.022;3.664;2022-08-04T05:46:11;21.20;99.90
56044;DHT22;41912;51.022;3.664;2022-08-04T05:48:37;21.20;99.90
56044;DHT22;41912;51.022;3.664;2022-08-04T05:51:05;21.20;99.90
56044;DHT22;41912;51.022;3.664;2022-08-04T05:53:33;21.20;99.90
56044;DHT22;41912;51.022;3.664;2022-08-04T05:56:00;21.30;99.90
56044;DHT22;41912;51.022;3.664;2022-08-04T05:58:31;21.30;99.90
56044;DHT22;41912;51.022;3.664;2022-08-04T06:00:59;21.40;99.90
56044;DHT22;41912;51.022;3.664;2022-08-04T06:03:28;21.40;99.90
56044;DHT22;41912;51.022;3.664;2022-08-04T06:05:56;21.40;99.90
56044;DHT22;41912;51.022;3.664;2022-08-04T06:08:22;21.40;99.90
56044;DHT22;41912;51.022;3.664;2022-08-04T06:10:50;21.50;99.90
56044;DHT22;41912;51.022;3.664;2022-08-04T06:13:18;21.50;99.90
56044;DHT22;41912;51.022;3.664;2022-08-04T06:15:45;21.50;99.90
56044;DHT22;41912;51.022;3.664;2022-08-04T06:18:13;21.60;99.90
56044;DHT22;41912;51.022;3.664;2022-08-04T06:20:41;21.60;99.90
56044;DHT22;41912;51.022;3.664;2022-08-04T06:23:10;21.60;99.90
56044;DHT22;41912;51.022;3.664;2022-08-04T06:25:47;21.70;99.90
56044;DHT22;41912;51.022;3.664;2022-08-04T06:28:15;21.70;99.90
56044;DHT22;41912;51.022;3.664;2022-08-04T06:30:43;21.80;99.90
56044;DHT22;41912;51.022;3.664;2022-08-04T06:33:13;21.80;99.90
56044;DHT22;41912;51.022;3.664;2022-08-04T06:35:59;21.90;99.90
56044;DHT22;41912;51.022;3.664;2022-08-04T06:38:27;21.90;99.90
56044;DHT22;41912;51.022;3.664;2022-08-04T06:40:54;21.90;99.90
56044;DHT22;41912;51.022;3.664;2022-08-04T06:43:23;21.90;99.90
56044;DHT22;41912;51.022;3.664;2022-08-04T06:45:50;22.00;99.90
56044;DHT22;41912;51.022;3.664;2022-08-04T06:48:17;22.00;99.80
56044;DHT22;41912;51.022;3.664;2022-08-04T06:50:46;22.00;99.80
56044;DHT22;41912;51.022;3.664;2022-08-04T06:53:13;22.10;99.70
56044;DHT22;41912;51.022;3.664;2022-08-04T06:55:41;22.20;99.70
56044;DHT22;41912;51.022;3.664;2022-08-04T06:58:08;22.20;99.60
56044;DHT22;41912;51.022;3.664;2022-08-04T07:00:35;22.20;99.50
56044;DHT22;41912;51.022;3.664;2022-08-04T07:03:02;22.20;99.30
56044;DHT22;41912;51.022;3.664;2022-08-04T07:05:30;22.20;99.30
56044;DHT22;41912;51.022;3.664;2022-08-04T07:07:56;22.20;99.30
56044;DHT22;41912;51.022;3.664;2022-08-04T07:10:22;22.20;99.30
56044;DHT22;41912;51.022;3.664;2022-08-04T07:12:49;22.20;99.30
56044;DHT22;41912;51.022;3.664;2022-08-04T07:15:16;22.30;99.40
56044;DHT22;41912;51.022;3.664;2022-08-04T07:17:43;22.30;99.40
56044;DHT22;41912;51.022;3.664;2022-08-04T07:20:10;22.40;99.20
56044;DHT22;41912;51.022;3.664;2022-08-04T07:22:36;22.40;99.20
56044;DHT22;41912;51.022;3.664;2022-08-04T07:25:08;22.40;99.10
56044;DHT22;41912;51.022;3.664;2022-08-04T07:27:34;22.50;99.00
56044;DHT22;41912;51.022;3.664;2022-08-04T07:30:00;22.50;98.70
56044;DHT22;41912;51.022;3.664;2022-08-04T07:32:26;22.60;98.70
56044;DHT22;41912;51.022;3.664;2022-08-04T07:34:53;22.70;98.60
56044;DHT22;41912;51.022;3.664;2022-08-04T07:37:18;22.70;98.40
56044;DHT22;41912;51.022;3.664;2022-08-04T07:39:44;22.70;98.30
56044;DHT22;41912;51.022;3.664;2022-08-04T07:42:10;22.70;98.40
56044;DHT22;41912;51.022;3.664;2022-08-04T07:44:36;22.80;98.10
56044;DHT22;41912;51.022;3.664;2022-08-04T07:47:04;22.80;98.10
56044;DHT22;41912;51.022;3.664;2022-08-04T07:49:30;22.70;98.00
56044;DHT22;41912;51.022;3.664;2022-08-04T07:51:56;22.80;98.00
56044;DHT22;41912;51.022;3.664;2022-08-04T07:54:22;22.80;98.10
56044;DHT22;41912;51.022;3.664;2022-08-04T07:56:49;22.80;98.10
56044;DHT22;41912;51.022;3.664;2022-08-04T07:59:16;22.80;98.20
56044;DHT22;41912;51.022;3.664;2022-08-04T08:01:42;22.80;98.00
56044;DHT22;41912;51.022;3.664;2022-08-04T08:04:10;22.90;97.90
56044;DHT22;41912;51.022;3.664;2022-08-04T08:06:37;22.90;97.80
56044;DHT22;41912;51.022;3.664;2022-08-04T08:09:15;22.90;97.80
56044;DHT22;41912;51.022;3.664;2022-08-04T08:11:42;22.90;97.90
56044;DHT22;41912;51.022;3.664;2022-08-04T08:14:09;22.90;98.00
56044;DHT22;41912;51.022;3.664;2022-08-04T08:16:35;22.90;98.00
56044;DHT22;41912;51.022;3.664;2022-08-04T08:19:01;22.90;97.80
56044;DHT22;41912;51.022;3.664;2022-08-04T08:21:27;22.90;97.70
56044;DHT22;41912;51.022;3.664;2022-08-04T08:23:53;22.90;97.80
56044;DHT22;41912;51.022;3.664;2022-08-04T08:26:19;22.90;97.90
56044;DHT22;41912;51.022;3.664;2022-08-04T08:28:44;23.00;98.00
56044;DHT22;41912;51.022;3.664;2022-08-04T08:31:11;23.00;98.00
56044;DHT22;41912;51.022;3.664;2022-08-04T08:33:36;23.00;97.90
56044;DHT22;41912;51.022;3.664;2022-08-04T08:36:08;23.00;98.00
56044;DHT22;41912;51.022;3.664;2022-08-04T08:38:54;23.00;98.10
56044;DHT22;41912;51.022;3.664;2022-08-04T08:44:17;23.00;98.10
56044;DHT22;41912;51.022;3.664;2022-08-04T09:06:44;23.20;97.40
56044;DHT22;41912;51.022;3.664;2022-08-04T09:17:58;23.30;97.30
56044;DHT22;41912;51.022;3.664;2022-08-04T09:20:44;23.30;97.40
56044;DHT22;41912;51.022;3.664;2022-08-04T09:23:30;23.40;97.00
56044;DHT22;41912;51.022;3.664;2022-08-04T09:31:45;23.60;95.90
56044;DHT22;41912;51.022;3.664;2022-08-04T09:37:01;23.80;96.00
56044;DHT22;41912;51.022;3.664;2022-08-04T09:39:39;23.90;95.40
56044;DHT22;41912;51.022;3.664;2022-08-04T09:42:34;24.00;95.30
56044;DHT22;41912;51.022;3.664;2022-08-04T09:47:52;24.20;94.80
56044;DHT22;41912;51.022;3.664;2022-08-04T09:50:37;24.20;94.20
56044;DHT22;41912;51.022;3.664;2022-08-04T09:55:57;24.40;94.20
56044;DHT22;41912;51.022;3.664;2022-08-04T10:01:16;24.70;93.60
56044;DHT22;41912;51.022;3.664;2022-08-04T10:03:56;24.80;93.80
56044;DHT22;41912;51.022;3.664;2022-08-04T10:06:47;24.90;93.50
56044;DHT22;41912;51.022;3.664;2022-08-04T10:18:22;25.00;92.30
56044;DHT22;41912;51.022;3.664;2022-08-04T10:26:09;25.30;92.20
56044;DHT22;41912;51.022;3.664;2022-08-04T10:29:09;25.40;91.70
56044;DHT22;41912;51.022;3.664;2022-08-04T10:32:03;25.50;91.50
56044;DHT22;41912;51.022;3.664;2022-08-04T10:34:40;25.80;90.60
56044;DHT22;41912;51.022;3.664;2022-08-04T10:37:22;25.70;90.40
56044;DHT22;41912;51.022;3.664;2022-08-04T10:39:58;25.80;90.70
56044;DHT22;41912;51.022;3.664;2022-08-04T10:42:52;26.00;90.90
56044;DHT22;41912;51.022;3.664;2022-08-04T10:45:25;26.10;90.50
56044;DHT22;41912;51.022;3.664;2022-08-04T10:48:22;26.10;89.80
56044;DHT22;41912;51.022;3.664;2022-08-04T10:51:03;26.20;89.40
56044;DHT22;41912;51.022;3.664;2022-08-04T10:53:31;26.30;89.60
56044;DHT22;41912;51.022;3.664;2022-08-04T10:56:16;26.40;88.70
56044;DHT22;41912;51.022;3.664;2022-08-04T10:58:58;26.50;88.30
56044;DHT22;41912;51.022;3.664;2022-08-04T11:01:37;26.50;87.50
56044;DHT22;41912;51.022;3.664;2022-08-04T11:06:41;26.70;86.00
56044;DHT22;41912;51.022;3.664;2022-08-04T11:09:08;26.70;86.00
56044;DHT22;41912;51.022;3.664;2022-08-04T11:11:49;26.70;84.00
56044;DHT22;41912;51.022;3.664;2022-08-04T11:14:26;26.80;85.40
56044;DHT22;41912;51.022;3.664;2022-08-04T11:22:26;27.10;83.90
56044;DHT22;41912;51.022;3.664;2022-08-04T11:28:01;27.20;84.30
56044;DHT22;41912;51.022;3.664;2022-08-04T11:31:34;27.30;84.00
56044;DHT22;41912;51.022;3.664;2022-08-04T11:36:53;27.40;83.40
56044;DHT22;41912;51.022;3.664;2022-08-04T11:39:35;27.50;82.80
56044;DHT22;41912;51.022;3.664;2022-08-04T11:42:42;27.60;83.10
56044;DHT22;41912;51.022;3.664;2022-08-04T11:45:27;27.70;81.70
56044;DHT22;41912;51.022;3.664;2022-08-04T11:50:35;27.80;81.30
56044;DHT22;41912;51.022;3.664;2022-08-04T11:53:02;27.80;81.80
56044;DHT22;41912;51.022;3.664;2022-08-04T11:55:30;27.80;80.40
56044;DHT22;41912;51.022;3.664;2022-08-04T11:57:56;27.70;79.20
56044;DHT22;41912;51.022;3.664;2022-08-04T12:00:24;27.60;79.60
56044;DHT22;41912;51.022;3.664;2022-08-04T12:08:44;27.90;78.90
56044;DHT22;41912;51.022;3.664;2022-08-04T12:14:12;27.80;78.90
56044;DHT22;41912;51.022;3.664;2022-08-04T12:16:51;27.80;79.30
56044;DHT22;41912;51.022;3.664;2022-08-04T12:19:25;27.80;78.20
56044;DHT22;41912;51.022;3.664;2022-08-04T12:21:55;28.00;77.70
56044;DHT22;41912;51.022;3.664;2022-08-04T12:24:28;28.10;78.70
56044;DHT22;41912;51.022;3.664;2022-08-04T12:26:58;28.20;77.00
56044;DHT22;41912;51.022;3.664;2022-08-04T12:29:31;28.30;78.00
56044;DHT22;41912;51.022;3.664;2022-08-04T12:32:10;28.40;78.50
56044;DHT22;41912;51.022;3.664;2022-08-04T12:34:51;28.60;76.80
56044;DHT22;41912;51.022;3.664;2022-08-04T12:37:46;28.70;77.90
56044;DHT22;41912;51.022;3.664;2022-08-04T12:40:31;28.80;74.50
56044;DHT22;41912;51.022;3.664;2022-08-04T12:43:14;28.80;74.10
56044;DHT22;41912;51.022;3.664;2022-08-04T12:45:53;28.80;73.60
56044;DHT22;41912;51.022;3.664;2022-08-04T12:48:21;29.00;73.50
56044;DHT22;41912;51.022;3.664;2022-08-04T12:50:58;29.00;73.80
56044;DHT22;41912;51.022;3.664;2022-08-04T12:53:36;29.00;75.80
56044;DHT22;41912;51.022;3.664;2022-08-04T12:56:03;29.10;72.70
56044;DHT22;41912;51.022;3.664;2022-08-04T12:58:37;29.00;71.60
56044;DHT22;41912;51.022;3.664;2022-08-04T13:01:05;29.00;71.30
56044;DHT22;41912;51.022;3.664;2022-08-04T13:03:43;29.10;71.30
56044;DHT22;41912;51.022;3.664;2022-08-04T13:06:13;29.20;73.30
56044;DHT22;41912;51.022;3.664;2022-08-04T13:08:41;29.40;71.00
56044;DHT22;41912;51.022;3.664;2022-08-04T13:11:08;29.50;71.50
56044;DHT22;41912;51.022;3.664;2022-08-04T13:13:37;29.50;70.70
56044;DHT22;41912;51.022;3.664;2022-08-04T13:16:05;29.40;71.40
56044;DHT22;41912;51.022;3.664;2022-08-04T13:18:46;29.40;70.60
56044;DHT22;41912;51.022;3.664;2022-08-04T13:21:21;29.30;70.20
56044;DHT22;41912;51.022;3.664;2022-08-04T13:23:54;29.30;72.50
56044;DHT22;41912;51.022;3.664;2022-08-04T13:26:23;29.30;72.30
56044;DHT22;41912;51.022;3.664;2022-08-04T13:28:51;29.30;70.40
56044;DHT22;41912;51.022;3.664;2022-08-04T13:31:22;29.30;71.50
56044;DHT22;41912;51.022;3.664;2022-08-04T13:33:52;29.30;72.20
56044;DHT22;41912;51.022;3.664;2022-08-04T13:36:24;29.30;70.20
56044;DHT22;41912;51.022;3.664;2022-08-04T13:38:53;29.30;70.60
56044;DHT22;41912;51.022;3.664;2022-08-04T13:41:20;29.30;72.10
56044;DHT22;41912;51.022;3.664;2022-08-04T13:43:54;29.20;72.60
56044;DHT22;41912;51.022;3.664;2022-08-04T13:46:26;29.10;73.10
56044;DHT22;41912;51.022;3.664;2022-08-04T13:48:53;29.10;73.50
56044;DHT22;41912;51.022;3.664;2022-08-04T13:51:21;29.10;74.10
56044;DHT22;41912;51.022;3.664;2022-08-04T13:53:59;29.10;74.70
56044;DHT22;41912;51.022;3.664;2022-08-04T13:56:32;29.30;74.00
56044;DHT22;41912;51.022;3.664;2022-08-04T13:58:59;29.50;75.10
56044;DHT22;41912;51.022;3.664;2022-08-04T14:01:27;29.60;72.80
56044;DHT22;41912;51.022;3.664;2022-08-04T14:06:34;29.80;73.00
56044;DHT22;41912;51.022;3.664;2022-08-04T14:09:09;29.80;72.10
56044;DHT22;41912;51.022;3.664;2022-08-04T14:11:41;29.60;71.50
56044;DHT22;41912;51.022;3.664;2022-08-04T14:14:14;29.50;71.70
56044;DHT22;41912;51.022;3.664;2022-08-04T14:30:07;29.60;73.00
56044;DHT22;41912;51.022;3.664;2022-08-04T14:32:54;29.70;73.10
56044;DHT22;41912;51.022;3.664;2022-08-04T14:35:20;29.80;71.30
56044;DHT22;41912;51.022;3.664;2022-08-04T14:38:03;29.90;72.00
56044;DHT22;41912;51.022;3.664;2022-08-04T14:40:30;30.00;71.20
56044;DHT22;41912;51.022;3.664;2022-08-04T14:42:58;29.90;71.50
56044;DHT22;41912;51.022;3.664;2022-08-04T14:52:23;29.70;70.20
56044;DHT22;41912;51.022;3.664;2022-08-04T14:54:49;29.60;71.00
56044;DHT22;41912;51.022;3.664;2022-08-04T14:57:15;29.40;72.20
56044;DHT22;41912;51.022;3.664;2022-08-04T14:59:47;29.30;72.00
56044;DHT22;41912;51.022;3.664;2022-08-04T15:02:14;29.20;72.80
56044;DHT22;41912;51.022;3.664;2022-08-04T15:04:45;29.20;73.70
56044;DHT22;41912;51.022;3.664;2022-08-04T15:07:11;29.20;72.00
56044;DHT22;41912;51.022;3.664;2022-08-04T15:09:36;29.10;73.00
56044;DHT22;41912;51.022;3.664;2022-08-04T15:12:03;29.10;73.20
56044;DHT22;41912;51.022;3.664;2022-08-04T15:14:29;29.00;72.50
56044;DHT22;41912;51.022;3.664;2022-08-04T15:16:56;29.00;71.80
56044;DHT22;41912;51.022;3.664;2022-08-04T15:19:22;29.00;72.70
56044;DHT22;41912;51.022;3.664;2022-08-04T15:21:48;29.00;72.60
56044;DHT22;41912;51.022;3.664;2022-08-04T15:24:14;29.00;71.80
56044;DHT22;41912;51.022;3.664;2022-08-04T15:26:43;29.10;71.50
56044;DHT22;41912;51.022;3.664;2022-08-04T15:29:16;29.10;71.80
56044;DHT22;41912;51.022;3.664;2022-08-04T15:31:44;29.00;71.60
56044;DHT22;41912;51.022;3.664;2022-08-04T15:34:11;29.00;72.20
56044;DHT22;41912;51.022;3.664;2022-08-04T15:39:25;29.00;70.60
56044;DHT22;41912;51.022;3.664;2022-08-04T15:49:24;29.00;70.30
56044;DHT22;41912;51.022;3.664;2022-08-04T15:52:04;29.00;70.60
56044;DHT22;41912;51.022;3.664;2022-08-04T15:54:30;28.90;69.20
56044;DHT22;41912;51.022;3.664;2022-08-04T15:56:56;28.80;69.50
56044;DHT22;41912;51.022;3.664;2022-08-04T15:59:57;28.80;69.50
56044;DHT22;41912;51.022;3.664;2022-08-04T16:08:08;28.60;70.70
56044;DHT22;41912;51.022;3.664;2022-08-04T16:10:35;28.50;70.60
56044;DHT22;41912;51.022;3.664;2022-08-04T16:18:04;28.40;70.20
56044;DHT22;41912;51.022;3.664;2022-08-04T16:20:31;28.30;70.00
56044;DHT22;41912;51.022;3.664;2022-08-04T16:23:11;28.30;71.50
56044;DHT22;41912;51.022;3.664;2022-08-04T16:25:43;28.30;70.40
56044;DHT22;41912;51.022;3.664;2022-08-04T16:28:44;28.40;70.10
56044;DHT22;41912;51.022;3.664;2022-08-04T16:31:11;28.40;70.60
56044;DHT22;41912;51.022;3.664;2022-08-04T16:33:38;28.30;70.70
56044;DHT22;41912;51.022;3.664;2022-08-04T16:36:06;28.20;69.80
56044;DHT22;41912;51.022;3.664;2022-08-04T16:38:59;28.10;70.60
56044;DHT22;41912;51.022;3.664;2022-08-04T16:41:39;28.20;71.00
56044;DHT22;41912;51.022;3.664;2022-08-04T16:46:53;28.10;70.30
56044;DHT22;41912;51.022;3.664;2022-08-04T16:49:18;28.10;71.20
56044;DHT22;41912;51.022;3.664;2022-08-04T16:51:48;28.00;70.40
56044;DHT22;41912;51.022;3.664;2022-08-04T16:54:14;28.10;71.30
56044;DHT22;41912;51.022;3.664;2022-08-04T16:56:40;28.00;70.20
56044;DHT22;41912;51.022;3.664;2022-08-04T16:59:08;28.00;69.50
56044;DHT22;41912;51.022;3.664;2022-08-04T17:01:34;28.00;70.90
56044;DHT22;41912;51.022;3.664;2022-08-04T17:04:01;27.90;71.50
56044;DHT22;41912;51.022;3.664;2022-08-04T17:06:35;28.00;71.00
56044;DHT22;41912;51.022;3.664;2022-08-04T17:09:19;28.00;71.30
56044;DHT22;41912;51.022;3.664;2022-08-04T17:11:46;27.90;71.20
56044;DHT22;41912;51.022;3.664;2022-08-04T17:14:13;27.80;70.50
56044;DHT22;41912;51.022;3.664;2022-08-04T17:16:45;27.70;69.80
56044;DHT22;41912;51.022;3.664;2022-08-04T17:19:11;27.60;69.80
56044;DHT22;41912;51.022;3.664;2022-08-04T17:21:37;27.60;69.70
56044;DHT22;41912;51.022;3.664;2022-08-04T17:24:04;27.50;69.30
56044;DHT22;41912;51.022;3.664;2022-08-04T17:26:32;27.30;69.80
56044;DHT22;41912;51.022;3.664;2022-08-04T17:28:57;27.20;70.50
56044;DHT22;41912;51.022;3.664;2022-08-04T17:31:28;27.10;70.60
56044;DHT22;41912;51.022;3.664;2022-08-04T17:33:59;27.00;70.70
56044;DHT22;41912;51.022;3.664;2022-08-04T17:36:27;27.00;70.80
56044;DHT22;41912;51.022;3.664;2022-08-04T17:38:59;27.00;70.10
56044;DHT22;41912;51.022;3.664;2022-08-04T17:41:26;27.00;71.00
56044;DHT22;41912;51.022;3.664;2022-08-04T17:43:59;26.90;70.50
56044;DHT22;41912;51.022;3.664;2022-08-04T17:54:35;26.70;69.50
56044;DHT22;41912;51.022;3.664;2022-08-04T17:57:19;26.60;70.00
56044;DHT22;41912;51.022;3.664;2022-08-04T17:59:46;26.60;70.30
56044;DHT22;41912;51.022;3.664;2022-08-04T18:02:24;26.60;70.40
56044;DHT22;41912;51.022;3.664;2022-08-04T18:04:51;26.60;70.10
56044;DHT22;41912;51.022;3.664;2022-08-04T18:09:51;26.40;70.10
56044;DHT22;41912;51.022;3.664;2022-08-04T18:12:22;26.40;70.30
56044;DHT22;41912;51.022;3.664;2022-08-04T18:14:50;26.40;70.80
56044;DHT22;41912;51.022;3.664;2022-08-04T18:17:36;26.20;70.90
56044;DHT22;41912;51.022;3.664;2022-08-04T18:20:06;26.20;70.60
56044;DHT22;41912;51.022;3.664;2022-08-04T18:22:34;26.10;71.40
56044;DHT22;41912;51.022;3.664;2022-08-04T18:25:00;26.00;71.90
56044;DHT22;41912;51.022;3.664;2022-08-04T18:27:28;26.00;72.10
56044;DHT22;41912;51.022;3.664;2022-08-04T18:29:54;26.00;72.90
56044;DHT22;41912;51.022;3.664;2022-08-04T18:32:20;26.00;72.20
56044;DHT22;41912;51.022;3.664;2022-08-04T18:34:48;26.00;72.50
56044;DHT22;41912;51.022;3.664;2022-08-04T18:37:14;26.10;73.00
56044;DHT22;41912;51.022;3.664;2022-08-04T18:39:40;26.00;72.10
56044;DHT22;41912;51.022;3.664;2022-08-04T18:42:06;26.00;72.50
56044;DHT22;41912;51.022;3.664;2022-08-04T18:44:32;25.90;73.40
56044;DHT22;41912;51.022;3.664;2022-08-04T18:46:59;26.00;73.30
56044;DHT22;41912;51.022;3.664;2022-08-04T18:49:25;26.00;73.50
56044;DHT22;41912;51.022;3.664;2022-08-04T18:51:52;26.00;74.10
56044;DHT22;41912;51.022;3.664;2022-08-04T18:54:18;26.00;75.00
56044;DHT22;41912;51.022;3.664;2022-08-04T18:56:44;25.90;74.20
56044;DHT22;41912;51.022;3.664;2022-08-04T18:59:10;25.90;74.30
56044;DHT22;41912;51.022;3.664;2022-08-04T19:01:35;25.80;74.10
56044;DHT22;41912;51.022;3.664;2022-08-04T19:04:01;25.70;76.20
56044;DHT22;41912;51.022;3.664;2022-08-04T19:06:28;25.70;76.20
56044;DHT22;41912;51.022;3.664;2022-08-04T19:08:54;25.70;76.00
56044;DHT22;41912;51.022;3.664;2022-08-04T19:11:20;25.70;75.30
56044;DHT22;41912;51.022;3.664;2022-08-04T19:13:45;25.70;76.20
56044;DHT22;41912;51.022;3.664;2022-08-04T19:16:11;25.60;76.00
56044;DHT22;41912;51.022;3.664;2022-08-04T19:18:37;25.60;76.00
56044;DHT22;41912;51.022;3.664;2022-08-04T19:21:03;25.60;76.10
56044;DHT22;41912;51.022;3.664;2022-08-04T19:23:29;25.50;76.70
56044;DHT22;41912;51.022;3.664;2022-08-04T19:25:56;25.40;77.60
56044;DHT22;41912;51.022;3.664;2022-08-04T19:28:23;25.40;77.80
56044;DHT22;41912;51.022;3.664;2022-08-04T19:30:49;25.30;77.70
56044;DHT22;41912;51.022;3.664;2022-08-04T19:33:14;25.30;77.90
56044;DHT22;41912;51.022;3.664;2022-08-04T19:35:40;25.30;77.80
56044;DHT22;41912;51.022;3.664;2022-08-04T19:38:09;25.30;78.50
56044;DHT22;41912;51.022;3.664;2022-08-04T19:40:37;25.30;78.80
56044;DHT22;41912;51.022;3.664;2022-08-04T19:43:03;25.20;78.60
56044;DHT22;41912;51.022;3.664;2022-08-04T19:45:29;25.20;79.30
56044;DHT22;41912;51.022;3.664;2022-08-04T19:47:55;25.10;79.90
56044;DHT22;41912;51.022;3.664;2022-08-04T19:50:21;25.10;79.80
56044;DHT22;41912;51.022;3.664;2022-08-04T19:52:47;25.10;79.80
56044;DHT22;41912;51.022;3.664;2022-08-04T19:55:12;25.10;79.90
56044;DHT22;41912;51.022;3.664;2022-08-04T19:57:39;25.00;79.90
56044;DHT22;41912;51.022;3.664;2022-08-04T20:00:11;25.00;80.10
56044;DHT22;41912;51.022;3.664;2022-08-04T20:02:42;25.00;80.40
56044;DHT22;41912;51.022;3.664;2022-08-04T20:05:08;24.90;81.10
56044;DHT22;41912;51.022;3.664;2022-08-04T20:07:33;24.90;81.10
56044;DHT22;41912;51.022;3.664;2022-08-04T20:09:59;24.90;80.70
56044;DHT22;41912;51.022;3.664;2022-08-04T20:12:25;24.90;81.10
56044;DHT22;41912;51.022;3.664;2022-08-04T20:14:51;24.80;81.30
56044;DHT22;41912;51.022;3.664;2022-08-04T20:17:16;24.80;81.40
56044;DHT22;41912;51.022;3.664;2022-08-04T20:19:42;24.80;80.60
56044;DHT22;41912;51.022;3.664;2022-08-04T20:22:08;24.80;79.10
56044;DHT22;41912;51.022;3.664;2022-08-04T20:24:33;24.70;80.70
56044;DHT22;41912;51.022;3.664;2022-08-04T20:26:59;24.70;81.60
56044;DHT22;41912;51.022;3.664;2022-08-04T20:29:24;24.70;81.40
56044;DHT22;41912;51.022;3.664;2022-08-04T20:31:50;24.60;80.80
56044;DHT22;41912;51.022;3.664;2022-08-04T20:34:16;24.60;79.00
56044;DHT22;41912;51.022;3.664;2022-08-04T20:36:41;24.60;80.30
56044;DHT22;41912;51.022;3.664;2022-08-04T20:39:07;24.50;78.90
56044;DHT22;41912;51.022;3.664;2022-08-04T20:41:33;24.50;79.50
56044;DHT22;41912;51.022;3.664;2022-08-04T20:43:58;24.50;81.20
56044;DHT22;41912;51.022;3.664;2022-08-04T20:46:24;24.60;79.50